createdAt,value
2022-10-23T00:01:18.530Z,2.47
2022-10-23T00:03:47.515Z,2.58
2022-10-23T00:06:16.306Z,2.00
2022-10-23T00:08:44.766Z,2.08
2022-10-23T00:11:16.371Z,2.30
2022-10-23T00:13:44.626Z,1.85
2022-10-23T00:16:12.819Z,1.98
2022-10-23T00:18:42.730Z,1.90
2022-10-23T00:21:12.799Z,1.90
2022-10-23T00:23:41.595Z,1.35
2022-10-23T00:26:15.101Z,1.40
2022-10-23T00:28:43.814Z,1.40
2022-10-23T00:31:12.317Z,1.73
2022-10-23T00:33:42.436Z,1.42
2022-10-23T00:36:13.362Z,1.23
2022-10-23T00:38:41.871Z,1.40
2022-10-23T00:41:21.674Z,7.28
2022-10-23T00:44:06.485Z,12.07
2022-10-23T00:46:36.195Z,5.70
2022-10-23T00:49:06.751Z,2.30
2022-10-23T00:51:39.609Z,1.55
2022-10-23T00:54:25.410Z,1.20
2022-10-23T00:56:57.248Z,1.63
2022-10-23T00:59:25.940Z,1.85
2022-10-23T01:01:54.178Z,0.73
2022-10-23T01:04:24.212Z,0.80
2022-10-23T01:07:00.746Z,1.13
2022-10-23T01:09:33.559Z,0.90
2022-10-23T01:12:08.320Z,1.20
2022-10-23T01:14:44.091Z,1.75
2022-10-23T01:17:20.824Z,2.95
2022-10-23T01:20:11.823Z,2.40
2022-10-23T01:23:02.854Z,2.63
2022-10-23T01:25:47.400Z,2.25
2022-10-23T01:28:22.978Z,2.45
2022-10-23T01:30:51.394Z,2.60
2022-10-23T01:33:23.842Z,2.13
2022-10-23T01:35:57.806Z,2.50
2022-10-23T01:38:30.597Z,2.67
2022-10-23T01:41:03.292Z,2.75
2022-10-23T01:43:38.154Z,1.90
2022-10-23T01:46:11.550Z,2.38
2022-10-23T01:48:39.730Z,1.50
2022-10-23T01:51:10.890Z,1.15
2022-10-23T01:53:42.120Z,0.95
2022-10-23T01:56:13.407Z,1.23
2022-10-23T01:58:46.759Z,1.20
2022-10-23T02:01:16.775Z,1.13
2022-10-23T02:03:46.538Z,1.20
2022-10-23T02:06:14.908Z,1.40
2022-10-23T02:08:43.324Z,1.13
2022-10-23T02:11:14.245Z,1.33
2022-10-23T02:13:49.095Z,1.40
2022-10-23T02:16:24.231Z,1.13
2022-10-23T02:19:00.528Z,0.88
2022-10-23T02:21:35.275Z,0.88
2022-10-23T02:24:08.307Z,1.20
2022-10-23T02:26:41.494Z,1.10
2022-10-23T02:29:15.672Z,1.45
2022-10-23T02:31:43.838Z,0.93
2022-10-23T02:34:11.897Z,0.95
2022-10-23T02:36:40.131Z,0.98
2022-10-23T02:39:08.234Z,1.25
2022-10-23T02:41:43.413Z,1.77
2022-10-23T02:44:33.842Z,2.15
2022-10-23T02:47:11.390Z,2.03
2022-10-23T02:49:46.595Z,2.10
2022-10-23T02:52:19.448Z,1.63
2022-10-23T02:55:04.175Z,1.58
2022-10-23T02:57:36.582Z,1.73
2022-10-23T03:00:13.127Z,1.40
2022-10-23T03:02:45.243Z,1.70
2022-10-23T03:05:20.679Z,1.80
2022-10-23T03:07:49.239Z,1.60
2022-10-23T03:10:17.299Z,1.42
2022-10-23T03:12:47.071Z,1.13
2022-10-23T03:15:17.915Z,1.02
2022-10-23T03:17:45.992Z,1.00
2022-10-23T03:20:14.424Z,1.27
2022-10-23T03:22:42.700Z,0.88
2022-10-23T03:25:11.210Z,1.00
2022-10-23T03:27:39.264Z,0.70
2022-10-23T03:30:08.790Z,0.80
2022-10-23T03:32:38.219Z,0.60
2022-10-23T03:35:07.077Z,0.80
2022-10-23T03:37:35.331Z,0.60
2022-10-23T03:40:03.710Z,0.70
2022-10-23T03:42:31.745Z,0.60
2022-10-23T03:44:59.796Z,0.88
2022-10-23T03:47:27.881Z,0.73
2022-10-23T03:49:57.279Z,0.55
2022-10-23T03:54:58.266Z,1.20
2022-10-23T03:57:26.632Z,2.33
2022-10-23T03:59:55.151Z,1.05
2022-10-23T04:02:23.301Z,0.90
2022-10-23T04:04:51.354Z,1.15
2022-10-23T04:07:20.737Z,1.08
2022-10-23T04:09:48.784Z,1.20
2022-10-23T04:12:16.843Z,1.42
2022-10-23T04:14:44.905Z,1.45
2022-10-23T04:17:12.955Z,1.45
2022-10-23T04:19:40.992Z,1.60
2022-10-23T04:22:09.032Z,1.27
2022-10-23T04:24:38.515Z,1.42
2022-10-23T04:27:06.768Z,1.40
2022-10-23T04:29:34.826Z,1.25
2022-10-23T04:32:02.889Z,1.23
2022-10-23T04:34:30.927Z,1.40
2022-10-23T04:36:58.945Z,1.50
2022-10-23T04:39:27.124Z,2.22
2022-10-23T04:41:56.540Z,1.15
2022-10-23T04:44:24.639Z,1.08
2022-10-23T04:46:52.702Z,1.25
2022-10-23T04:49:20.731Z,1.40
2022-10-23T04:51:48.794Z,1.20
2022-10-23T04:54:16.902Z,1.10
2022-10-23T04:56:45.056Z,1.17
2022-10-23T04:59:14.569Z,1.25
2022-10-23T05:01:42.686Z,1.58
2022-10-23T05:04:10.851Z,1.25
2022-10-23T05:06:38.927Z,1.00
2022-10-23T05:09:06.972Z,1.00
2022-10-23T05:11:35.021Z,1.10
2022-10-23T05:14:03.067Z,1.17
2022-10-23T05:16:39.004Z,1.40
2022-10-23T05:19:11.811Z,1.48
2022-10-23T05:21:41.675Z,1.40
2022-10-23T05:24:11.428Z,1.30
2022-10-23T05:26:39.431Z,2.13
2022-10-23T05:29:07.459Z,1.73
2022-10-23T05:31:37.415Z,2.13
2022-10-23T05:34:06.838Z,2.65
2022-10-23T05:36:35.806Z,1.35
2022-10-23T05:39:04.026Z,1.35
2022-10-23T05:41:32.389Z,1.73
2022-10-23T05:44:00.406Z,1.50
2022-10-23T05:46:29.030Z,1.67
2022-10-23T05:51:27.374Z,1.85
2022-10-23T05:53:57.469Z,2.80
2022-10-23T05:56:25.539Z,2.10
2022-10-23T05:58:53.570Z,2.25
2022-10-23T06:01:23.089Z,2.35
2022-10-23T06:03:52.199Z,2.00
2022-10-23T06:06:21.637Z,3.30
2022-10-23T06:08:49.644Z,6.60
2022-10-23T06:11:17.736Z,4.40
2022-10-23T06:13:46.708Z,3.83
2022-10-23T06:16:16.705Z,6.20
2022-10-23T06:18:45.943Z,4.97
2022-10-23T06:21:15.078Z,3.30
2022-10-23T06:23:45.630Z,2.65
2022-10-23T06:26:15.498Z,2.28
2022-10-23T06:28:43.988Z,2.03
2022-10-23T06:31:15.018Z,3.22
2022-10-23T06:33:43.402Z,11.13
2022-10-23T06:36:11.604Z,6.38
2022-10-23T06:38:40.647Z,4.10
2022-10-23T06:41:15.247Z,2.97
2022-10-23T06:43:43.383Z,2.92
2022-10-23T06:46:11.775Z,2.85
2022-10-23T06:48:39.806Z,3.13
2022-10-23T06:51:09.229Z,2.25
2022-10-23T06:53:37.939Z,2.17
2022-10-23T06:56:07.639Z,1.80
2022-10-23T06:58:38.303Z,2.00
2022-10-23T07:01:08.936Z,1.80
2022-10-23T07:03:37.309Z,2.10
2022-10-23T07:06:07.603Z,2.17
2022-10-23T07:08:35.707Z,1.77
2022-10-23T07:11:05.456Z,2.45
2022-10-23T07:13:36.264Z,28.65
2022-10-23T07:16:11.968Z,16.00
2022-10-23T07:18:40.101Z,11.15
2022-10-23T07:21:08.304Z,7.30
2022-10-23T07:23:36.362Z,6.65
2022-10-23T07:26:06.314Z,5.20
2022-10-23T07:28:36.149Z,5.10
2022-10-23T07:31:04.727Z,5.18
2022-10-23T07:33:32.748Z,4.15
2022-10-23T07:36:01.016Z,4.53
2022-10-23T07:38:29.108Z,3.92
2022-10-23T07:40:59.243Z,5.35
2022-10-23T07:43:28.007Z,8.80
2022-10-23T07:45:57.624Z,6.82
2022-10-23T07:48:27.253Z,4.20
2022-10-23T07:50:55.737Z,3.70
2022-10-23T07:53:26.086Z,4.30
2022-10-23T07:55:55.053Z,3.67
2022-10-23T07:58:23.574Z,4.07
2022-10-23T08:00:58.615Z,2.97
2022-10-23T08:03:27.097Z,2.78
2022-10-23T08:05:55.571Z,2.90
2022-10-23T08:08:24.267Z,2.70
2022-10-23T08:10:53.479Z,2.30
2022-10-23T08:13:22.948Z,2.20
2022-10-23T08:15:52.643Z,1.40
2022-10-23T08:18:22.073Z,1.30
2022-10-23T08:20:52.375Z,1.90
2022-10-23T08:23:21.192Z,2.22
2022-10-23T08:25:49.270Z,1.85
2022-10-23T08:28:17.661Z,1.70
2022-10-23T08:30:45.691Z,1.77
2022-10-23T08:33:13.706Z,1.80
2022-10-23T08:35:43.094Z,1.50
2022-10-23T08:38:12.443Z,1.67
2022-10-23T08:40:45.927Z,2.03
2022-10-23T08:43:21.071Z,1.40
2022-10-23T08:45:52.350Z,1.20
2022-10-23T08:48:26.280Z,1.00
2022-10-23T08:50:59.347Z,1.40
2022-10-23T08:53:33.888Z,1.20
2022-10-23T08:56:05.536Z,1.10
2022-10-23T08:58:40.174Z,1.50
2022-10-23T09:01:31.925Z,0.90
2022-10-23T09:04:00.290Z,1.17
2022-10-23T09:06:37.946Z,1.10
2022-10-23T09:09:41.122Z,1.08
2022-10-23T09:12:12.735Z,1.08
2022-10-23T09:14:58.610Z,1.20
2022-10-23T09:17:28.762Z,1.17
2022-10-23T09:20:02.878Z,1.30
2022-10-23T09:22:32.357Z,1.30
2022-10-23T09:25:00.492Z,1.30
2022-10-23T09:27:28.567Z,1.35
2022-10-23T09:29:59.341Z,1.10
2022-10-23T09:32:38.923Z,1.60
2022-10-23T09:35:08.256Z,1.25
2022-10-23T09:37:48.486Z,1.27
2022-10-23T09:40:20.782Z,1.00
2022-10-23T09:42:58.059Z,1.10
2022-10-23T09:45:29.301Z,1.23
2022-10-23T09:48:15.049Z,1.08
2022-10-23T09:50:50.907Z,1.10
2022-10-23T09:53:27.402Z,0.90
2022-10-23T09:55:57.830Z,1.25
2022-10-23T09:58:33.071Z,1.00
2022-10-23T10:01:01.677Z,1.00
2022-10-23T10:03:29.750Z,1.30
2022-10-23T10:06:00.084Z,1.40
2022-10-23T10:08:37.444Z,0.93
2022-10-23T10:11:13.213Z,1.15
2022-10-23T10:14:02.403Z,1.08
2022-10-23T10:19:22.806Z,1.10
2022-10-23T10:21:55.352Z,1.35
2022-10-23T10:24:31.234Z,0.93
2022-10-23T10:27:05.034Z,1.20
2022-10-23T10:29:52.220Z,0.80
2022-10-23T10:32:36.182Z,1.20
2022-10-23T10:35:24.664Z,1.02
2022-10-23T10:38:06.756Z,1.00
2022-10-23T10:40:41.341Z,1.05
2022-10-23T10:43:22.331Z,1.20
2022-10-23T10:45:58.456Z,1.13
2022-10-23T10:48:41.916Z,0.90
2022-10-23T10:51:15.026Z,1.05
2022-10-23T10:53:53.206Z,1.00
2022-10-23T10:56:24.211Z,0.70
2022-10-23T10:58:56.323Z,1.13
2022-10-23T11:01:28.866Z,1.25
2022-10-23T11:04:02.849Z,0.70
2022-10-23T11:06:35.214Z,1.23
2022-10-23T11:09:20.134Z,1.08
2022-10-23T11:11:50.854Z,0.88
2022-10-23T11:14:20.827Z,0.98
2022-10-23T11:16:51.848Z,1.08
2022-10-23T11:19:24.416Z,1.00
2022-10-23T11:21:59.460Z,0.80
2022-10-23T11:24:53.395Z,1.00
2022-10-23T11:27:39.738Z,0.70
2022-10-23T11:30:23.963Z,0.95
2022-10-23T11:33:21.703Z,0.80
2022-10-23T11:35:58.437Z,0.82
2022-10-23T11:38:29.927Z,0.88
2022-10-23T11:41:02.099Z,0.68
2022-10-23T11:43:34.378Z,0.90
2022-10-23T11:46:14.183Z,0.70
2022-10-23T11:48:44.195Z,1.02
2022-10-23T11:51:30.740Z,0.80
2022-10-23T11:54:22.419Z,1.10
2022-10-23T11:56:56.039Z,0.95
2022-10-23T11:59:29.410Z,1.02
2022-10-23T12:01:59.424Z,0.60
2022-10-23T12:04:31.991Z,0.70
2022-10-23T12:07:05.372Z,1.00
2022-10-23T12:09:38.241Z,0.93
2022-10-23T12:12:17.129Z,0.80
2022-10-23T12:14:47.811Z,0.82
2022-10-23T12:17:35.727Z,0.95
2022-10-23T12:20:20.701Z,0.90
2022-10-23T12:22:59.559Z,0.98
2022-10-23T12:25:35.136Z,0.90
2022-10-23T12:28:09.787Z,0.90
2022-10-23T12:30:46.188Z,0.80
2022-10-23T12:33:25.790Z,0.90
2022-10-23T12:36:08.602Z,0.70
2022-10-23T12:38:45.284Z,0.77
2022-10-23T12:41:15.843Z,0.65
2022-10-23T12:43:46.619Z,0.90
2022-10-23T12:46:31.587Z,1.13
2022-10-23T12:49:00.964Z,0.90
2022-10-23T12:51:30.766Z,0.95
2022-10-23T12:53:59.092Z,0.70
2022-10-23T12:56:30.521Z,1.13
2022-10-23T12:59:01.694Z,0.85
2022-10-23T13:01:33.117Z,0.90
2022-10-23T13:04:14.579Z,0.57
2022-10-23T13:06:43.265Z,0.80
2022-10-23T13:09:24.078Z,0.63
2022-10-23T13:11:53.454Z,0.70
2022-10-23T13:14:34.426Z,0.60
2022-10-23T13:17:05.745Z,1.10
2022-10-23T13:19:34.541Z,1.05
2022-10-23T13:22:05.195Z,0.80
2022-10-23T13:24:33.585Z,1.48
2022-10-23T13:27:01.696Z,0.88
2022-10-23T13:29:32.487Z,0.77
2022-10-23T13:32:11.407Z,1.10
2022-10-23T13:34:39.473Z,1.27
2022-10-23T13:37:25.463Z,0.80
2022-10-23T13:40:03.470Z,0.65
2022-10-23T13:42:31.692Z,1.00
2022-10-23T13:44:59.734Z,0.73
2022-10-23T13:47:29.160Z,1.05
2022-10-23T13:49:57.177Z,1.00
2022-10-23T13:52:25.306Z,0.65
2022-10-23T13:54:53.375Z,0.80
2022-10-23T13:57:21.407Z,0.88
2022-10-23T13:59:49.427Z,0.90
2022-10-23T14:02:21.006Z,0.95
2022-10-23T14:04:51.387Z,1.10
2022-10-23T14:07:19.606Z,0.88
2022-10-23T14:09:50.457Z,0.80
2022-10-23T14:12:18.846Z,0.70
2022-10-23T14:14:51.181Z,0.70
2022-10-23T14:17:19.349Z,0.98
2022-10-23T14:19:47.471Z,0.82
2022-10-23T14:22:17.995Z,0.60
2022-10-23T14:24:46.047Z,0.73
2022-10-23T14:27:14.126Z,0.80
2022-10-23T14:29:42.582Z,0.60
2022-10-23T14:32:10.965Z,0.88
2022-10-23T14:34:41.235Z,1.05
2022-10-23T14:37:09.484Z,0.85
2022-10-23T14:39:38.975Z,0.85
2022-10-23T14:42:07.121Z,0.77
2022-10-23T14:44:35.262Z,0.88
2022-10-23T14:47:03.346Z,0.70
2022-10-23T14:49:31.810Z,1.13
2022-10-23T14:51:59.910Z,1.00
2022-10-23T14:54:29.329Z,0.63
2022-10-23T14:56:58.752Z,0.77
2022-10-23T14:59:26.854Z,0.90
2022-10-23T15:01:54.901Z,0.85
2022-10-23T15:04:23.202Z,0.95
2022-10-23T15:06:51.483Z,1.40
2022-10-23T15:09:20.274Z,0.93
2022-10-23T15:11:48.795Z,0.80
2022-10-23T15:14:18.260Z,1.10
2022-10-23T15:16:46.325Z,0.68
2022-10-23T15:19:18.693Z,0.82
2022-10-23T15:21:47.851Z,1.08
2022-10-23T15:24:16.068Z,0.70
2022-10-23T15:26:44.497Z,1.40
2022-10-23T15:29:14.415Z,1.02
2022-10-23T15:31:49.877Z,0.90
2022-10-23T15:34:20.620Z,1.27
2022-10-23T15:36:49.627Z,1.00
2022-10-23T15:39:20.557Z,0.90
2022-10-23T15:41:51.256Z,1.30
2022-10-23T15:44:21.285Z,0.80
2022-10-23T15:46:51.607Z,1.23
2022-10-23T15:49:20.054Z,0.90
2022-10-23T15:51:48.184Z,0.98
2022-10-23T15:54:19.042Z,1.15
2022-10-23T15:56:49.037Z,0.87
2022-10-23T15:59:17.860Z,1.30
2022-10-23T16:01:45.983Z,1.25
2022-10-23T16:04:16.078Z,1.10
2022-10-23T16:06:44.701Z,1.00
2022-10-23T16:09:13.084Z,1.08
2022-10-23T16:11:43.259Z,1.30
2022-10-23T16:14:14.279Z,1.10
2022-10-23T16:16:42.403Z,1.17
2022-10-23T16:19:11.799Z,1.40
2022-10-23T16:21:42.297Z,1.52
2022-10-23T16:24:11.018Z,0.80
2022-10-23T16:26:39.304Z,1.30
2022-10-23T16:29:09.471Z,1.00
2022-10-23T16:31:37.857Z,1.02
2022-10-23T16:34:06.787Z,1.75
2022-10-23T16:36:35.208Z,1.35
2022-10-23T16:39:05.875Z,1.45
2022-10-23T16:41:33.936Z,1.40
2022-10-23T16:44:02.145Z,1.33
2022-10-23T16:46:30.340Z,1.10
2022-10-23T16:48:58.551Z,1.38
2022-10-23T16:51:27.867Z,1.08
2022-10-23T16:53:56.814Z,1.23
2022-10-23T16:56:29.618Z,1.38
2022-10-23T17:01:33.118Z,2.00
2022-10-23T17:04:01.782Z,1.10
2022-10-23T17:06:32.040Z,1.10
2022-10-23T17:09:01.478Z,1.83
2022-10-23T17:11:32.186Z,1.55
2022-10-23T17:14:02.159Z,1.40
2022-10-23T17:16:31.684Z,1.48
2022-10-23T17:19:00.065Z,2.17
2022-10-23T17:21:31.963Z,9.77
2022-10-23T17:26:28.600Z,24.48
2022-10-23T17:28:58.384Z,28.30
2022-10-23T17:31:28.702Z,15.20
2022-10-23T17:33:59.037Z,4.10
2022-10-23T17:36:28.174Z,2.20
2022-10-23T17:38:56.457Z,1.58
2022-10-23T17:41:26.274Z,1.90
2022-10-23T17:43:59.081Z,2.28
2022-10-23T17:46:29.188Z,1.42
2022-10-23T17:48:59.171Z,1.48
2022-10-23T17:51:28.572Z,1.38
2022-10-23T17:53:58.355Z,1.10
2022-10-23T17:56:29.279Z,1.35
2022-10-23T17:59:01.851Z,1.23
2022-10-23T18:01:31.004Z,1.20
2022-10-23T18:04:02.052Z,1.23
2022-10-23T18:06:32.974Z,1.43
2022-10-23T18:09:02.512Z,3.10
2022-10-23T18:11:33.619Z,3.67
2022-10-23T18:14:03.921Z,4.57
2022-10-23T18:16:32.129Z,5.63
2022-10-23T18:19:01.897Z,3.72
2022-10-23T18:21:30.439Z,3.33
2022-10-23T18:24:00.083Z,2.30
2022-10-23T18:26:30.983Z,2.15
2022-10-23T18:29:00.600Z,1.55
2022-10-23T18:31:30.867Z,2.47
2022-10-23T18:34:01.422Z,2.03
2022-10-23T18:36:32.123Z,2.17
2022-10-23T18:39:00.256Z,1.90
2022-10-23T18:41:29.071Z,2.03
2022-10-23T18:43:57.348Z,3.03
2022-10-23T18:46:25.400Z,2.33
2022-10-23T18:48:54.864Z,2.22
2022-10-23T18:51:25.044Z,2.53
2022-10-23T18:53:53.721Z,2.10
2022-10-23T18:56:26.678Z,1.65
2022-10-23T18:58:56.280Z,1.95
2022-10-23T19:01:26.957Z,1.67
2022-10-23T19:04:00.597Z,1.80
2022-10-23T19:06:29.567Z,1.90
2022-10-23T19:08:57.735Z,2.05
2022-10-23T19:11:27.992Z,1.33
2022-10-23T19:13:56.661Z,1.83
2022-10-23T19:16:28.135Z,2.17
2022-10-23T19:19:01.036Z,1.55
2022-10-23T19:21:33.105Z,2.10
2022-10-23T19:24:03.007Z,1.95
2022-10-23T19:26:33.445Z,2.30
2022-10-23T19:29:01.741Z,1.60
2022-10-23T19:31:29.881Z,2.03
2022-10-23T19:34:00.324Z,1.73
2022-10-23T19:43:51.438Z,2.63
2022-10-23T19:46:19.914Z,2.10
2022-10-23T19:48:48.091Z,2.38
2022-10-23T19:51:17.679Z,2.00
2022-10-23T19:53:45.915Z,2.67
2022-10-23T19:56:14.486Z,2.70
2022-10-23T19:58:42.749Z,3.05
2022-10-23T20:01:12.896Z,3.33
2022-10-23T20:03:42.369Z,2.83
2022-10-23T20:06:12.474Z,2.67
2022-10-23T20:08:42.537Z,2.70
2022-10-23T20:11:11.367Z,3.35
2022-10-23T20:13:39.530Z,3.22
2022-10-23T20:16:08.262Z,3.55
2022-10-23T20:18:36.582Z,2.70
2022-10-23T20:21:04.933Z,3.15
2022-10-23T20:23:33.106Z,3.75
2022-10-23T20:26:11.769Z,3.17
2022-10-23T20:28:40.415Z,3.30
2022-10-23T20:31:10.070Z,2.97
2022-10-23T20:33:38.382Z,3.63
2022-10-23T20:36:09.085Z,3.38
2022-10-23T20:38:37.715Z,3.58
2022-10-23T20:41:05.977Z,3.63
2022-10-23T20:43:35.527Z,3.13
2022-10-23T20:46:07.903Z,3.20
2022-10-23T20:48:36.897Z,3.60
2022-10-23T20:51:05.691Z,3.55
2022-10-23T20:53:35.030Z,3.30
2022-10-23T20:56:06.284Z,3.83
2022-10-23T20:58:36.476Z,3.53
2022-10-23T21:01:05.827Z,3.13
2022-10-23T21:03:34.411Z,3.30
2022-10-23T21:06:06.644Z,3.13
2022-10-23T21:08:34.962Z,2.97
2022-10-23T21:11:03.206Z,4.25
2022-10-23T21:13:32.259Z,3.78
2022-10-23T21:16:01.822Z,3.45
2022-10-23T21:18:45.052Z,3.08
2022-10-23T21:21:14.085Z,4.45
2022-10-23T21:23:42.669Z,3.83
2022-10-23T21:26:10.847Z,3.70
2022-10-23T21:28:41.734Z,3.33
2022-10-23T21:31:17.202Z,3.60
2022-10-23T21:33:46.853Z,3.53
2022-10-23T21:36:17.453Z,3.70
2022-10-23T21:38:45.782Z,4.20
2022-10-23T21:41:16.550Z,4.32
2022-10-23T21:43:45.459Z,4.40
2022-10-23T21:46:15.156Z,3.90
2022-10-23T21:48:45.706Z,4.03
2022-10-23T21:51:17.216Z,4.32
2022-10-23T21:53:45.441Z,4.68
2022-10-23T21:56:24.967Z,4.20
2022-10-23T21:58:53.187Z,4.93
2022-10-23T22:01:21.981Z,4.38
2022-10-23T22:03:51.884Z,4.35
2022-10-23T22:06:22.541Z,4.43
2022-10-23T22:08:52.268Z,4.95
2022-10-23T22:11:20.653Z,4.68
2022-10-23T22:13:48.986Z,4.35
2022-10-23T22:16:18.195Z,5.28
2022-10-23T22:18:46.411Z,4.80
2022-10-23T22:21:18.757Z,4.90
2022-10-23T22:23:49.281Z,5.22
2022-10-23T22:26:23.191Z,5.65
2022-10-23T22:28:52.292Z,4.95
2022-10-23T22:31:22.357Z,4.80
2022-10-23T22:33:50.880Z,5.55
2022-10-23T22:36:21.232Z,5.38
2022-10-23T22:38:49.727Z,5.70
2022-10-23T22:41:18.237Z,5.15
2022-10-23T22:43:46.441Z,5.68
2022-10-23T22:46:19.028Z,5.20
2022-10-23T22:48:47.231Z,5.72
2022-10-23T22:51:17.375Z,5.85
2022-10-23T22:53:47.855Z,5.65
2022-10-23T22:56:18.823Z,5.15
2022-10-23T22:58:47.477Z,6.20
2022-10-23T23:01:18.484Z,5.68
2022-10-23T23:03:47.166Z,5.78
2022-10-23T23:06:15.898Z,5.38
2022-10-23T23:08:44.535Z,5.25
2022-10-23T23:11:15.903Z,5.85
2022-10-23T23:13:44.876Z,6.28
2022-10-23T23:16:20.592Z,5.90
2022-10-23T23:18:48.862Z,5.97
2022-10-23T23:21:18.003Z,5.32
2022-10-23T23:23:46.420Z,6.07
2022-10-23T23:26:17.098Z,6.22
2022-10-23T23:28:45.438Z,6.28
2022-10-23T23:31:17.644Z,6.35
2022-10-23T23:33:46.150Z,5.53
2022-10-23T23:36:17.266Z,7.05
2022-10-23T23:38:45.464Z,6.65
2022-10-23T23:41:16.272Z,6.38
2022-10-23T23:43:44.801Z,7.05
2022-10-23T23:46:13.710Z,6.63
2022-10-23T23:48:47.305Z,6.93
2022-10-23T23:51:15.656Z,6.38
2022-10-23T23:53:44.113Z,6.65
2022-10-23T23:56:12.362Z,6.32
2022-10-23T23:58:42.076Z,5.80
